sensor_id;sensor_type;location;lat;lon;timestamp;P1;durP1;ratioP1;P2;durP2;ratioP2
38182;SDS011;23991;52.430;10.586;2022-07-09T00:01:03;3.17;;;1.25;;
38182;SDS011;23991;52.430;10.586;2022-07-09T00:03:29;2.78;;;1.27;;
38182;SDS011;23991;52.430;10.586;2022-07-09T00:05:55;4.65;;;1.45;;
38182;SDS011;23991;52.430;10.586;2022-07-09T00:08:21;2.50;;;1.35;;
38182;SDS011;23991;52.430;10.586;2022-07-09T00:10:47;4.43;;;1.60;;
38182;SDS011;23991;52.430;10.586;2022-07-09T00:13:13;2.03;;;1.30;;
38182;SDS011;23991;52.430;10.586;2022-07-09T00:15:39;2.92;;;1.50;;
38182;SDS011;23991;52.430;10.586;2022-07-09T00:18:05;2.22;;;1.35;;
38182;SDS011;23991;52.430;10.586;2022-07-09T00:20:30;2.78;;;1.45;;
38182;SDS011;23991;52.430;10.586;2022-07-09T00:22:56;3.80;;;1.52;;
38182;SDS011;23991;52.430;10.586;2022-07-09T00:25:22;2.67;;;1.67;;
38182;SDS011;23991;52.430;10.586;2022-07-09T00:27:48;3.70;;;1.33;;
38182;SDS011;23991;52.430;10.586;2022-07-09T00:30:14;3.58;;;1.30;;
38182;SDS011;23991;52.430;10.586;2022-07-09T00:32:40;2.00;;;1.50;;
38182;SDS011;23991;52.430;10.586;2022-07-09T00:35:06;2.25;;;1.40;;
38182;SDS011;23991;52.430;10.586;2022-07-09T00:37:32;2.90;;;1.50;;
38182;SDS011;23991;52.430;10.586;2022-07-09T00:39:58;2.65;;;1.42;;
38182;SDS011;23991;52.430;10.586;2022-07-09T00:42:24;3.88;;;1.50;;
38182;SDS011;23991;52.430;10.586;2022-07-09T00:44:50;4.95;;;1.48;;
38182;SDS011;23991;52.430;10.586;2022-07-09T00:47:16;6.57;;;1.17;;
38182;SDS011;23991;52.430;10.586;2022-07-09T00:49:42;2.50;;;1.20;;
38182;SDS011;23991;52.430;10.586;2022-07-09T00:52:11;2.92;;;1.30;;
38182;SDS011;23991;52.430;10.586;2022-07-09T00:54:38;2.55;;;1.50;;
38182;SDS011;23991;52.430;10.586;2022-07-09T00:57:06;2.80;;;1.20;;
38182;SDS011;23991;52.430;10.586;2022-07-09T00:59:32;3.17;;;1.33;;
38182;SDS011;23991;52.430;10.586;2022-07-09T01:01:59;4.38;;;1.50;;
38182;SDS011;23991;52.430;10.586;2022-07-09T01:04:25;3.40;;;1.65;;
38182;SDS011;23991;52.430;10.586;2022-07-09T01:06:51;2.83;;;1.45;;
38182;SDS011;23991;52.430;10.586;2022-07-09T01:09:17;2.15;;;1.40;;
38182;SDS011;23991;52.430;10.586;2022-07-09T01:11:43;2.70;;;1.33;;
38182;SDS011;23991;52.430;10.586;2022-07-09T01:14:09;3.63;;;1.40;;
38182;SDS011;23991;52.430;10.586;2022-07-09T01:16:35;2.35;;;1.30;;
38182;SDS011;23991;52.430;10.586;2022-07-09T01:19:05;2.42;;;1.38;;
38182;SDS011;23991;52.430;10.586;2022-07-09T01:21:31;2.90;;;1.90;;
38182;SDS011;23991;52.430;10.586;2022-07-09T01:23:57;1.42;;;1.13;;
38182;SDS011;23991;52.430;10.586;2022-07-09T01:26:23;2.10;;;1.40;;
38182;SDS011;23991;52.430;10.586;2022-07-09T01:28:49;2.33;;;1.27;;
38182;SDS011;23991;52.430;10.586;2022-07-09T01:31:15;1.80;;;1.30;;
38182;SDS011;23991;52.430;10.586;2022-07-09T01:33:41;1.98;;;1.15;;
38182;SDS011;23991;52.430;10.586;2022-07-09T01:36:07;3.25;;;1.52;;
38182;SDS011;23991;52.430;10.586;2022-07-09T01:38:34;2.95;;;1.48;;
38182;SDS011;23991;52.430;10.586;2022-07-09T01:41:00;4.13;;;1.45;;
38182;SDS011;23991;52.430;10.586;2022-07-09T01:43:26;2.55;;;1.40;;
38182;SDS011;23991;52.430;10.586;2022-07-09T01:45:52;2.50;;;1.58;;
38182;SDS011;23991;52.430;10.586;2022-07-09T01:48:18;3.22;;;1.50;;
38182;SDS011;23991;52.430;10.586;2022-07-09T01:50:44;4.22;;;1.60;;
38182;SDS011;23991;52.430;10.586;2022-07-09T01:53:09;2.38;;;1.50;;
38182;SDS011;23991;52.430;10.586;2022-07-09T01:55:35;3.10;;;1.40;;
38182;SDS011;23991;52.430;10.586;2022-07-09T01:58:01;2.45;;;1.35;;
38182;SDS011;23991;52.430;10.586;2022-07-09T02:00:27;2.72;;;1.40;;
38182;SDS011;23991;52.430;10.586;2022-07-09T02:02:54;2.53;;;1.30;;
38182;SDS011;23991;52.430;10.586;2022-07-09T02:05:20;3.13;;;1.40;;
38182;SDS011;23991;52.430;10.586;2022-07-09T02:07:46;5.18;;;2.00;;
38182;SDS011;23991;52.430;10.586;2022-07-09T02:10:12;3.80;;;1.67;;
38182;SDS011;23991;52.430;10.586;2022-07-09T02:12:38;4.18;;;1.77;;
38182;SDS011;23991;52.430;10.586;2022-07-09T02:15:05;2.70;;;1.70;;
38182;SDS011;23991;52.430;10.586;2022-07-09T02:17:32;2.63;;;1.40;;
38182;SDS011;23991;52.430;10.586;2022-07-09T02:19:58;2.58;;;1.58;;
38182;SDS011;23991;52.430;10.586;2022-07-09T02:22:24;3.22;;;1.50;;
38182;SDS011;23991;52.430;10.586;2022-07-09T02:24:50;3.58;;;1.40;;
38182;SDS011;23991;52.430;10.586;2022-07-09T02:27:15;2.97;;;1.60;;
38182;SDS011;23991;52.430;10.586;2022-07-09T02:29:41;4.22;;;1.60;;
38182;SDS011;23991;52.430;10.586;2022-07-09T02:32:07;2.47;;;1.58;;
38182;SDS011;23991;52.430;10.586;2022-07-09T02:34:37;2.28;;;1.25;;
38182;SDS011;23991;52.430;10.586;2022-07-09T02:37:04;2.08;;;1.30;;
38182;SDS011;23991;52.430;10.586;2022-07-09T02:39:30;2.70;;;1.40;;
38182;SDS011;23991;52.430;10.586;2022-07-09T02:41:56;4.15;;;1.60;;
38182;SDS011;23991;52.430;10.586;2022-07-09T02:44:22;3.97;;;1.63;;
38182;SDS011;23991;52.430;10.586;2022-07-09T02:46:48;1.75;;;1.33;;
38182;SDS011;23991;52.430;10.586;2022-07-09T02:49:14;3.08;;;1.30;;
38182;SDS011;23991;52.430;10.586;2022-07-09T02:51:40;2.78;;;1.40;;
38182;SDS011;23991;52.430;10.586;2022-07-09T02:54:06;2.28;;;1.17;;
38182;SDS011;23991;52.430;10.586;2022-07-09T02:56:32;3.92;;;1.33;;
38182;SDS011;23991;52.430;10.586;2022-07-09T02:58:58;2.58;;;1.38;;
38182;SDS011;23991;52.430;10.586;2022-07-09T03:01:24;4.50;;;1.42;;
38182;SDS011;23991;52.430;10.586;2022-07-09T03:03:49;3.05;;;1.30;;
38182;SDS011;23991;52.430;10.586;2022-07-09T03:06:15;2.78;;;1.30;;
38182;SDS011;23991;52.430;10.586;2022-07-09T03:08:41;2.05;;;1.40;;
38182;SDS011;23991;52.430;10.586;2022-07-09T03:11:07;4.53;;;1.52;;
38182;SDS011;23991;52.430;10.586;2022-07-09T03:13:34;5.63;;;1.60;;
38182;SDS011;23991;52.430;10.586;2022-07-09T03:16:00;2.55;;;1.40;;
38182;SDS011;23991;52.430;10.586;2022-07-09T03:18:26;4.68;;;1.40;;
38182;SDS011;23991;52.430;10.586;2022-07-09T03:20:52;2.58;;;1.45;;
38182;SDS011;23991;52.430;10.586;2022-07-09T03:23:18;2.72;;;1.30;;
38182;SDS011;23991;52.430;10.586;2022-07-09T03:25:44;4.22;;;1.40;;
38182;SDS011;23991;52.430;10.586;2022-07-09T03:28:10;2.22;;;1.38;;
38182;SDS011;23991;52.430;10.586;2022-07-09T03:30:36;2.72;;;1.50;;
38182;SDS011;23991;52.430;10.586;2022-07-09T03:33:02;3.40;;;2.05;;
38182;SDS011;23991;52.430;10.586;2022-07-09T03:35:28;3.00;;;1.52;;
38182;SDS011;23991;52.430;10.586;2022-07-09T03:37:54;2.55;;;1.30;;
38182;SDS011;23991;52.430;10.586;2022-07-09T03:40:20;4.03;;;1.63;;
38182;SDS011;23991;52.430;10.586;2022-07-09T03:42:46;3.58;;;1.67;;
38182;SDS011;23991;52.430;10.586;2022-07-09T03:45:12;2.85;;;1.70;;
38182;SDS011;23991;52.430;10.586;2022-07-09T03:47:38;4.03;;;1.75;;
38182;SDS011;23991;52.430;10.586;2022-07-09T03:50:04;2.83;;;1.30;;
38182;SDS011;23991;52.430;10.586;2022-07-09T03:52:30;3.05;;;1.52;;
38182;SDS011;23991;52.430;10.586;2022-07-09T03:54:56;3.45;;;1.30;;
38182;SDS011;23991;52.430;10.586;2022-07-09T03:57:22;4.10;;;1.77;;
38182;SDS011;23991;52.430;10.586;2022-07-09T03:59:48;3.55;;;1.40;;
38182;SDS011;23991;52.430;10.586;2022-07-09T04:02:14;3.40;;;1.30;;
38182;SDS011;23991;52.430;10.586;2022-07-09T04:04:40;3.00;;;1.50;;
38182;SDS011;23991;52.430;10.586;2022-07-09T04:07:07;3.60;;;1.40;;
38182;SDS011;23991;52.430;10.586;2022-07-09T04:09:33;3.25;;;1.48;;
38182;SDS011;23991;52.430;10.586;2022-07-09T04:11:59;1.90;;;1.25;;
38182;SDS011;23991;52.430;10.586;2022-07-09T04:14:25;3.20;;;1.60;;
38182;SDS011;23991;52.430;10.586;2022-07-09T04:16:51;3.30;;;1.40;;
38182;SDS011;23991;52.430;10.586;2022-07-09T04:19:17;3.10;;;1.40;;
38182;SDS011;23991;52.430;10.586;2022-07-09T04:21:43;3.25;;;1.80;;
38182;SDS011;23991;52.430;10.586;2022-07-09T04:24:09;2.47;;;1.48;;
38182;SDS011;23991;52.430;10.586;2022-07-09T04:26:35;3.13;;;1.50;;
38182;SDS011;23991;52.430;10.586;2022-07-09T04:29:01;2.88;;;1.50;;
38182;SDS011;23991;52.430;10.586;2022-07-09T04:31:26;3.17;;;1.48;;
38182;SDS011;23991;52.430;10.586;2022-07-09T04:33:52;1.95;;;1.40;;
38182;SDS011;23991;52.430;10.586;2022-07-09T04:36:18;2.30;;;1.30;;
38182;SDS011;23991;52.430;10.586;2022-07-09T04:38:44;4.00;;;1.45;;
38182;SDS011;23991;52.430;10.586;2022-07-09T04:41:10;2.42;;;1.52;;
38182;SDS011;23991;52.430;10.586;2022-07-09T04:43:36;3.60;;;1.40;;
38182;SDS011;23991;52.430;10.586;2022-07-09T04:46:02;2.22;;;1.30;;
38182;SDS011;23991;52.430;10.586;2022-07-09T04:48:28;3.25;;;1.50;;
38182;SDS011;23991;52.430;10.586;2022-07-09T04:50:54;3.88;;;1.80;;
38182;SDS011;23991;52.430;10.586;2022-07-09T04:53:20;1.90;;;1.30;;
38182;SDS011;23991;52.430;10.586;2022-07-09T04:55:46;2.25;;;1.23;;
38182;SDS011;23991;52.430;10.586;2022-07-09T04:58:12;4.63;;;1.50;;
38182;SDS011;23991;52.430;10.586;2022-07-09T05:00:38;11.20;;;1.73;;
38182;SDS011;23991;52.430;10.586;2022-07-09T05:03:04;4.78;;;1.73;;
38182;SDS011;23991;52.430;10.586;2022-07-09T05:05:30;3.58;;;1.55;;
38182;SDS011;23991;52.430;10.586;2022-07-09T05:07:56;3.58;;;1.55;;
38182;SDS011;23991;52.430;10.586;2022-07-09T05:10:22;4.55;;;1.45;;
38182;SDS011;23991;52.430;10.586;2022-07-09T05:12:48;2.47;;;1.40;;
38182;SDS011;23991;52.430;10.586;2022-07-09T05:15:15;5.07;;;1.65;;
38182;SDS011;23991;52.430;10.586;2022-07-09T05:17:41;3.15;;;1.30;;
38182;SDS011;23991;52.430;10.586;2022-07-09T05:20:08;2.97;;;1.13;;
38182;SDS011;23991;52.430;10.586;2022-07-09T05:22:35;3.58;;;1.58;;
38182;SDS011;23991;52.430;10.586;2022-07-09T05:25:02;3.30;;;1.50;;
38182;SDS011;23991;52.430;10.586;2022-07-09T05:27:28;2.83;;;1.48;;
38182;SDS011;23991;52.430;10.586;2022-07-09T05:29:54;3.45;;;1.30;;
38182;SDS011;23991;52.430;10.586;2022-07-09T05:32:20;3.50;;;1.50;;
38182;SDS011;23991;52.430;10.586;2022-07-09T05:34:46;6.00;;;1.48;;
38182;SDS011;23991;52.430;10.586;2022-07-09T05:37:12;5.10;;;1.75;;
38182;SDS011;23991;52.430;10.586;2022-07-09T05:39:38;6.40;;;1.67;;
38182;SDS011;23991;52.430;10.586;2022-07-09T05:42:04;6.85;;;1.60;;
38182;SDS011;23991;52.430;10.586;2022-07-09T05:44:30;4.20;;;1.67;;
38182;SDS011;23991;52.430;10.586;2022-07-09T05:46:56;5.03;;;1.60;;
38182;SDS011;23991;52.430;10.586;2022-07-09T05:49:22;5.47;;;1.90;;
38182;SDS011;23991;52.430;10.586;2022-07-09T05:51:48;3.05;;;1.67;;
38182;SDS011;23991;52.430;10.586;2022-07-09T05:54:14;3.85;;;1.60;;
38182;SDS011;23991;52.430;10.586;2022-07-09T05:56:40;7.57;;;1.75;;
38182;SDS011;23991;52.430;10.586;2022-07-09T05:59:06;2.25;;;1.48;;
38182;SDS011;23991;52.430;10.586;2022-07-09T06:01:32;4.80;;;1.83;;
38182;SDS011;23991;52.430;10.586;2022-07-09T06:04:03;4.28;;;1.40;;
38182;SDS011;23991;52.430;10.586;2022-07-09T06:06:29;2.97;;;1.60;;
38182;SDS011;23991;52.430;10.586;2022-07-09T06:08:55;4.45;;;1.73;;
38182;SDS011;23991;52.430;10.586;2022-07-09T06:11:21;6.57;;;1.90;;
38182;SDS011;23991;52.430;10.586;2022-07-09T06:13:47;4.28;;;1.65;;
38182;SDS011;23991;52.430;10.586;2022-07-09T06:16:13;6.15;;;1.80;;
38182;SDS011;23991;52.430;10.586;2022-07-09T06:18:39;5.22;;;1.80;;
38182;SDS011;23991;52.430;10.586;2022-07-09T06:21:05;4.13;;;1.95;;
38182;SDS011;23991;52.430;10.586;2022-07-09T06:23:31;9.40;;;2.20;;
38182;SDS011;23991;52.430;10.586;2022-07-09T06:25:57;7.32;;;1.83;;
38182;SDS011;23991;52.430;10.586;2022-07-09T06:28:23;4.97;;;1.70;;
38182;SDS011;23991;52.430;10.586;2022-07-09T06:30:49;6.47;;;2.00;;
38182;SDS011;23991;52.430;10.586;2022-07-09T06:33:14;7.05;;;1.90;;
38182;SDS011;23991;52.430;10.586;2022-07-09T06:35:40;11.13;;;2.70;;
38182;SDS011;23991;52.430;10.586;2022-07-09T06:38:06;5.05;;;2.55;;
38182;SDS011;23991;52.430;10.586;2022-07-09T06:40:32;6.50;;;2.38;;
38182;SDS011;23991;52.430;10.586;2022-07-09T06:42:59;10.52;;;2.50;;
38182;SDS011;23991;52.430;10.586;2022-07-09T06:45:25;11.63;;;2.58;;
38182;SDS011;23991;52.430;10.586;2022-07-09T06:47:51;7.20;;;1.88;;
38182;SDS011;23991;52.430;10.586;2022-07-09T06:50:18;7.93;;;2.95;;
38182;SDS011;23991;52.430;10.586;2022-07-09T06:52:44;6.00;;;2.08;;
38182;SDS011;23991;52.430;10.586;2022-07-09T06:55:09;9.50;;;2.20;;
38182;SDS011;23991;52.430;10.586;2022-07-09T06:57:36;14.35;;;2.95;;
38182;SDS011;23991;52.430;10.586;2022-07-09T07:00:03;5.18;;;2.17;;
38182;SDS011;23991;52.430;10.586;2022-07-09T07:02:29;12.40;;;2.55;;
38182;SDS011;23991;52.430;10.586;2022-07-09T07:04:55;12.10;;;1.92;;
38182;SDS011;23991;52.430;10.586;2022-07-09T07:07:21;23.30;;;2.70;;
38182;SDS011;23991;52.430;10.586;2022-07-09T07:09:47;10.90;;;2.70;;
38182;SDS011;23991;52.430;10.586;2022-07-09T07:12:14;12.57;;;3.60;;
38182;SDS011;23991;52.430;10.586;2022-07-09T07:14:40;15.00;;;3.65;;
38182;SDS011;23991;52.430;10.586;2022-07-09T07:17:06;9.02;;;2.30;;
38182;SDS011;23991;52.430;10.586;2022-07-09T07:19:32;11.95;;;2.22;;
38182;SDS011;23991;52.430;10.586;2022-07-09T07:21:58;4.20;;;1.65;;
38182;SDS011;23991;52.430;10.586;2022-07-09T07:24:23;3.80;;;1.63;;
38182;SDS011;23991;52.430;10.586;2022-07-09T07:26:50;6.43;;;1.67;;
38182;SDS011;23991;52.430;10.586;2022-07-09T07:29:16;4.78;;;2.45;;
38182;SDS011;23991;52.430;10.586;2022-07-09T07:31:42;6.15;;;1.75;;
38182;SDS011;23991;52.430;10.586;2022-07-09T07:34:08;4.22;;;2.03;;
38182;SDS011;23991;52.430;10.586;2022-07-09T07:36:34;5.65;;;1.83;;
38182;SDS011;23991;52.430;10.586;2022-07-09T07:39:00;7.00;;;2.17;;
38182;SDS011;23991;52.430;10.586;2022-07-09T07:41:26;3.45;;;1.73;;
38182;SDS011;23991;52.430;10.586;2022-07-09T07:43:52;12.05;;;1.80;;
38182;SDS011;23991;52.430;10.586;2022-07-09T07:46:17;4.55;;;1.95;;
38182;SDS011;23991;52.430;10.586;2022-07-09T07:48:43;8.10;;;2.70;;
38182;SDS011;23991;52.430;10.586;2022-07-09T07:51:09;6.80;;;1.92;;
38182;SDS011;23991;52.430;10.586;2022-07-09T07:53:36;5.93;;;1.45;;
38182;SDS011;23991;52.430;10.586;2022-07-09T07:56:02;3.72;;;1.58;;
38182;SDS011;23991;52.430;10.586;2022-07-09T07:58:28;6.28;;;1.70;;
38182;SDS011;23991;52.430;10.586;2022-07-09T08:00:54;5.28;;;1.80;;
38182;SDS011;23991;52.430;10.586;2022-07-09T08:03:21;9.65;;;2.17;;
38182;SDS011;23991;52.430;10.586;2022-07-09T08:05:47;11.07;;;2.92;;
38182;SDS011;23991;52.430;10.586;2022-07-09T08:08:13;5.65;;;1.63;;
38182;SDS011;23991;52.430;10.586;2022-07-09T08:10:39;10.55;;;2.63;;
38182;SDS011;23991;52.430;10.586;2022-07-09T08:13:04;6.35;;;1.60;;
38182;SDS011;23991;52.430;10.586;2022-07-09T08:15:30;6.72;;;1.67;;
38182;SDS011;23991;52.430;10.586;2022-07-09T08:17:56;5.30;;;1.95;;
38182;SDS011;23991;52.430;10.586;2022-07-09T08:20:22;6.90;;;1.67;;
38182;SDS011;23991;52.430;10.586;2022-07-09T08:22:48;4.95;;;1.80;;
38182;SDS011;23991;52.430;10.586;2022-07-09T08:25:14;6.30;;;2.03;;
38182;SDS011;23991;52.430;10.586;2022-07-09T08:27:40;3.97;;;1.92;;
38182;SDS011;23991;52.430;10.586;2022-07-09T08:30:06;7.57;;;2.10;;
38182;SDS011;23991;52.430;10.586;2022-07-09T08:32:33;3.95;;;1.60;;
38182;SDS011;23991;52.430;10.586;2022-07-09T08:34:59;4.03;;;1.92;;
38182;SDS011;23991;52.430;10.586;2022-07-09T08:37:25;3.65;;;1.92;;
38182;SDS011;23991;52.430;10.586;2022-07-09T08:39:50;4.15;;;1.60;;
38182;SDS011;23991;52.430;10.586;2022-07-09T08:42:16;3.05;;;1.55;;
38182;SDS011;23991;52.430;10.586;2022-07-09T08:44:43;4.28;;;1.65;;
38182;SDS011;23991;52.430;10.586;2022-07-09T08:47:11;4.67;;;1.80;;
38182;SDS011;23991;52.430;10.586;2022-07-09T08:49:37;5.93;;;1.58;;
38182;SDS011;23991;52.430;10.586;2022-07-09T08:52:04;3.03;;;1.75;;
38182;SDS011;23991;52.430;10.586;2022-07-09T08:54:31;7.22;;;1.65;;
38182;SDS011;23991;52.430;10.586;2022-07-09T08:56:58;6.30;;;1.70;;
38182;SDS011;23991;52.430;10.586;2022-07-09T08:59:24;3.65;;;1.40;;
38182;SDS011;23991;52.430;10.586;2022-07-09T09:01:50;5.75;;;1.73;;
38182;SDS011;23991;52.430;10.586;2022-07-09T09:04:17;3.10;;;1.90;;
38182;SDS011;23991;52.430;10.586;2022-07-09T09:06:43;2.75;;;1.50;;
38182;SDS011;23991;52.430;10.586;2022-07-09T09:09:09;4.07;;;1.70;;
38182;SDS011;23991;52.430;10.586;2022-07-09T09:11:36;2.92;;;1.63;;
38182;SDS011;23991;52.430;10.586;2022-07-09T09:14:02;5.68;;;1.95;;
38182;SDS011;23991;52.430;10.586;2022-07-09T09:16:28;3.55;;;1.58;;
38182;SDS011;23991;52.430;10.586;2022-07-09T09:18:54;5.72;;;1.80;;
38182;SDS011;23991;52.430;10.586;2022-07-09T09:21:21;3.70;;;1.50;;
38182;SDS011;23991;52.430;10.586;2022-07-09T09:23:48;3.13;;;1.58;;
38182;SDS011;23991;52.430;10.586;2022-07-09T09:26:17;3.63;;;1.83;;
38182;SDS011;23991;52.430;10.586;2022-07-09T09:28:50;3.10;;;1.90;;
38182;SDS011;23991;52.430;10.586;2022-07-09T09:33:54;2.53;;;1.63;;
38182;SDS011;23991;52.430;10.586;2022-07-09T09:36:27;3.80;;;1.70;;
38182;SDS011;23991;52.430;10.586;2022-07-09T09:38:53;3.92;;;1.80;;
38182;SDS011;23991;52.430;10.586;2022-07-09T09:41:22;2.15;;;1.40;;
38182;SDS011;23991;52.430;10.586;2022-07-09T09:43:48;2.53;;;1.50;;
38182;SDS011;23991;52.430;10.586;2022-07-09T09:46:15;4.72;;;1.60;;
38182;SDS011;23991;52.430;10.586;2022-07-09T09:48:42;2.20;;;1.55;;
38182;SDS011;23991;52.430;10.586;2022-07-09T09:51:09;2.17;;;1.50;;
38182;SDS011;23991;52.430;10.586;2022-07-09T09:53:36;3.15;;;1.50;;
38182;SDS011;23991;52.430;10.586;2022-07-09T09:56:03;3.72;;;1.48;;
38182;SDS011;23991;52.430;10.586;2022-07-09T09:58:29;2.88;;;1.33;;
38182;SDS011;23991;52.430;10.586;2022-07-09T10:00:56;4.65;;;1.77;;
38182;SDS011;23991;52.430;10.586;2022-07-09T10:03:22;2.72;;;1.25;;
38182;SDS011;23991;52.430;10.586;2022-07-09T10:05:48;3.53;;;2.22;;
38182;SDS011;23991;52.430;10.586;2022-07-09T10:08:16;4.57;;;1.60;;
38182;SDS011;23991;52.430;10.586;2022-07-09T10:10:49;3.85;;;1.60;;
38182;SDS011;23991;52.430;10.586;2022-07-09T10:13:19;2.45;;;1.40;;
38182;SDS011;23991;52.430;10.586;2022-07-09T10:18:11;2.70;;;1.48;;
38182;SDS011;23991;52.430;10.586;2022-07-09T10:20:37;2.58;;;1.40;;
38182;SDS011;23991;52.430;10.586;2022-07-09T10:23:03;4.32;;;1.70;;
38182;SDS011;23991;52.430;10.586;2022-07-09T10:25:29;2.97;;;1.30;;
38182;SDS011;23991;52.430;10.586;2022-07-09T10:27:55;2.92;;;1.50;;
38182;SDS011;23991;52.430;10.586;2022-07-09T10:30:25;2.60;;;1.45;;
38182;SDS011;23991;52.430;10.586;2022-07-09T10:35:30;3.05;;;1.33;;
38182;SDS011;23991;52.430;10.586;2022-07-09T10:37:56;3.65;;;1.63;;
38182;SDS011;23991;52.430;10.586;2022-07-09T10:40:22;3.38;;;1.42;;
38182;SDS011;23991;52.430;10.586;2022-07-09T10:42:59;2.45;;;1.60;;
38182;SDS011;23991;52.430;10.586;2022-07-09T10:45:27;1.77;;;1.10;;
38182;SDS011;23991;52.430;10.586;2022-07-09T10:47:57;2.28;;;1.20;;
38182;SDS011;23991;52.430;10.586;2022-07-09T10:50:23;2.08;;;1.20;;
38182;SDS011;23991;52.430;10.586;2022-07-09T10:52:50;3.53;;;1.63;;
38182;SDS011;23991;52.430;10.586;2022-07-09T10:55:19;2.25;;;1.23;;
38182;SDS011;23991;52.430;10.586;2022-07-09T10:57:45;2.45;;;1.50;;
38182;SDS011;23991;52.430;10.586;2022-07-09T11:00:18;1.60;;;1.40;;
38182;SDS011;23991;52.430;10.586;2022-07-09T11:02:54;2.50;;;1.30;;
38182;SDS011;23991;52.430;10.586;2022-07-09T11:05:20;1.90;;;1.50;;
38182;SDS011;23991;52.430;10.586;2022-07-09T11:07:56;3.17;;;1.42;;
38182;SDS011;23991;52.430;10.586;2022-07-09T11:10:22;2.92;;;1.35;;
38182;SDS011;23991;52.430;10.586;2022-07-09T11:12:48;2.20;;;1.63;;
38182;SDS011;23991;52.430;10.586;2022-07-09T11:15:20;3.47;;;1.30;;
38182;SDS011;23991;52.430;10.586;2022-07-09T11:17:57;2.65;;;1.40;;
38182;SDS011;23991;52.430;10.586;2022-07-09T11:20:24;3.70;;;1.95;;
38182;SDS011;23991;52.430;10.586;2022-07-09T11:22:50;1.83;;;1.30;;
38182;SDS011;23991;52.430;10.586;2022-07-09T11:25:16;2.78;;;1.17;;
38182;SDS011;23991;52.430;10.586;2022-07-09T11:27:42;1.88;;;1.15;;
38182;SDS011;23991;52.430;10.586;2022-07-09T11:30:17;3.65;;;1.30;;
38182;SDS011;23991;52.430;10.586;2022-07-09T11:32:44;5.20;;;1.67;;
38182;SDS011;23991;52.430;10.586;2022-07-09T11:35:10;3.75;;;1.48;;
38182;SDS011;23991;52.430;10.586;2022-07-09T11:37:37;1.85;;;1.20;;
38182;SDS011;23991;52.430;10.586;2022-07-09T11:40:03;1.35;;;1.15;;
38182;SDS011;23991;52.430;10.586;2022-07-09T11:42:30;1.50;;;1.15;;
38182;SDS011;23991;52.430;10.586;2022-07-09T11:44:59;2.38;;;1.33;;
38182;SDS011;23991;52.430;10.586;2022-07-09T11:49:51;2.25;;;1.20;;
38182;SDS011;23991;52.430;10.586;2022-07-09T11:52:18;2.28;;;1.40;;
38182;SDS011;23991;52.430;10.586;2022-07-09T11:57:23;3.65;;;1.30;;
38182;SDS011;23991;52.430;10.586;2022-07-09T11:59:49;3.17;;;1.30;;
38182;SDS011;23991;52.430;10.586;2022-07-09T12:02:25;1.80;;;1.17;;
38182;SDS011;23991;52.430;10.586;2022-07-09T12:04:51;2.20;;;1.25;;
38182;SDS011;23991;52.430;10.586;2022-07-09T12:07:17;1.92;;;1.25;;
38182;SDS011;23991;52.430;10.586;2022-07-09T12:09:43;1.92;;;1.10;;
38182;SDS011;23991;52.430;10.586;2022-07-09T12:12:09;2.05;;;1.30;;
38182;SDS011;23991;52.430;10.586;2022-07-09T12:14:35;1.83;;;1.35;;
38182;SDS011;23991;52.430;10.586;2022-07-09T12:17:01;3.00;;;1.13;;
38182;SDS011;23991;52.430;10.586;2022-07-09T12:19:27;1.50;;;1.20;;
38182;SDS011;23991;52.430;10.586;2022-07-09T12:21:53;2.40;;;1.10;;
38182;SDS011;23991;52.430;10.586;2022-07-09T12:24:19;1.38;;;0.95;;
38182;SDS011;23991;52.430;10.586;2022-07-09T12:26:45;3.20;;;1.10;;
38182;SDS011;23991;52.430;10.586;2022-07-09T12:29:11;1.70;;;1.20;;
38182;SDS011;23991;52.430;10.586;2022-07-09T12:31:37;2.58;;;1.40;;
38182;SDS011;23991;52.430;10.586;2022-07-09T12:34:04;2.45;;;1.20;;
38182;SDS011;23991;52.430;10.586;2022-07-09T12:36:30;3.40;;;1.20;;
38182;SDS011;23991;52.430;10.586;2022-07-09T12:38:56;2.83;;;1.42;;
38182;SDS011;23991;52.430;10.586;2022-07-09T12:41:22;3.10;;;1.25;;
38182;SDS011;23991;52.430;10.586;2022-07-09T12:43:48;1.85;;;1.17;;
38182;SDS011;23991;52.430;10.586;2022-07-09T12:46:14;1.42;;;1.00;;
38182;SDS011;23991;52.430;10.586;2022-07-09T12:48:40;1.27;;;1.00;;
38182;SDS011;23991;52.430;10.586;2022-07-09T12:51:06;2.72;;;1.40;;
38182;SDS011;23991;52.430;10.586;2022-07-09T12:53:32;2.50;;;1.30;;
38182;SDS011;23991;52.430;10.586;2022-07-09T12:55:58;1.98;;;1.15;;
38182;SDS011;23991;52.430;10.586;2022-07-09T12:58:24;3.58;;;1.45;;
38182;SDS011;23991;52.430;10.586;2022-07-09T13:00:49;4.35;;;1.38;;
38182;SDS011;23991;52.430;10.586;2022-07-09T13:03:15;1.70;;;1.02;;
38182;SDS011;23991;52.430;10.586;2022-07-09T13:05:41;1.92;;;1.42;;
38182;SDS011;23991;52.430;10.586;2022-07-09T13:08:07;5.47;;;1.35;;
38182;SDS011;23991;52.430;10.586;2022-07-09T13:10:33;2.17;;;1.40;;
38182;SDS011;23991;52.430;10.586;2022-07-09T13:12:59;3.20;;;1.27;;
38182;SDS011;23991;52.430;10.586;2022-07-09T13:15:25;2.17;;;1.20;;
38182;SDS011;23991;52.430;10.586;2022-07-09T13:17:51;3.38;;;1.60;;
38182;SDS011;23991;52.430;10.586;2022-07-09T13:20:17;2.80;;;1.30;;
38182;SDS011;23991;52.430;10.586;2022-07-09T13:22:43;2.40;;;1.50;;
38182;SDS011;23991;52.430;10.586;2022-07-09T13:25:09;3.13;;;1.70;;
38182;SDS011;23991;52.430;10.586;2022-07-09T13:27:35;1.83;;;1.10;;
38182;SDS011;23991;52.430;10.586;2022-07-09T13:30:01;1.58;;;1.23;;
38182;SDS011;23991;52.430;10.586;2022-07-09T13:32:27;2.72;;;1.50;;
38182;SDS011;23991;52.430;10.586;2022-07-09T13:34:53;2.42;;;1.10;;
38182;SDS011;23991;52.430;10.586;2022-07-09T13:37:19;2.58;;;1.25;;
38182;SDS011;23991;52.430;10.586;2022-07-09T13:39:45;1.80;;;1.30;;
38182;SDS011;23991;52.430;10.586;2022-07-09T13:42:11;1.48;;;1.30;;
38182;SDS011;23991;52.430;10.586;2022-07-09T13:44:37;1.27;;;1.10;;
38182;SDS011;23991;52.430;10.586;2022-07-09T13:47:04;2.60;;;1.13;;
38182;SDS011;23991;52.430;10.586;2022-07-09T13:49:30;1.85;;;1.10;;
38182;SDS011;23991;52.430;10.586;2022-07-09T13:51:56;1.70;;;1.38;;
38182;SDS011;23991;52.430;10.586;2022-07-09T13:54:22;1.50;;;1.10;;
38182;SDS011;23991;52.430;10.586;2022-07-09T13:56:48;2.13;;;1.13;;
38182;SDS011;23991;52.430;10.586;2022-07-09T13:59:14;4.05;;;1.40;;
38182;SDS011;23991;52.430;10.586;2022-07-09T14:01:40;1.77;;;1.20;;
38182;SDS011;23991;52.430;10.586;2022-07-09T14:04:06;3.25;;;1.35;;
38182;SDS011;23991;52.430;10.586;2022-07-09T14:06:32;2.03;;;1.00;;
38182;SDS011;23991;52.430;10.586;2022-07-09T14:08:58;2.30;;;1.27;;
38182;SDS011;23991;52.430;10.586;2022-07-09T14:11:24;3.17;;;1.40;;
38182;SDS011;23991;52.430;10.586;2022-07-09T14:13:50;2.53;;;1.20;;
38182;SDS011;23991;52.430;10.586;2022-07-09T14:16:18;2.85;;;1.63;;
38182;SDS011;23991;52.430;10.586;2022-07-09T14:18:44;3.50;;;1.42;;
38182;SDS011;23991;52.430;10.586;2022-07-09T14:21:10;3.22;;;1.40;;
38182;SDS011;23991;52.430;10.586;2022-07-09T14:23:36;1.52;;;1.15;;
38182;SDS011;23991;52.430;10.586;2022-07-09T14:26:02;1.70;;;1.27;;
38182;SDS011;23991;52.430;10.586;2022-07-09T14:28:28;2.20;;;1.10;;
38182;SDS011;23991;52.430;10.586;2022-07-09T14:30:54;2.05;;;1.20;;
38182;SDS011;23991;52.430;10.586;2022-07-09T14:33:20;1.42;;;1.10;;
38182;SDS011;23991;52.430;10.586;2022-07-09T14:35:46;2.50;;;1.08;;
38182;SDS011;23991;52.430;10.586;2022-07-09T14:38:12;2.60;;;1.10;;
38182;SDS011;23991;52.430;10.586;2022-07-09T14:40:38;1.45;;;1.23;;